Time;durP1;ratioP1;P1;durP2;ratioP2;P2;SDS_P1;SDS_P2;PMS_P1;PMS_P2;Temp;Humidity;BMP_temperature;BMP_pressure;BME280_temperature;BME280_humidity;BME280_pressure;Samples;Min_cycle;Max_cycle;Signal;HPM_P1;HPM_P2
2023/02/23 00:00:57;;;;;;;;;36.67;32.33;;;;;-0.60;96.62;98534.00;4648413;28;106667;-72
2023/02/23 00:04:22;;;;;;;;;34.67;30.00;;;;;-0.58;96.99;98533.84;4696206;28;102321;-69
2023/02/23 00:07:56;;;;;;;;;24.67;22.33;;;;;-0.68;96.43;98514.41;4694006;28;102905;-72
2023/02/23 00:11:44;;;;;;;;;23.67;13.67;;;;;-0.63;95.51;98517.50;4684667;28;102064;-69
2023/02/23 00:15:11;;;;;;;;;15.33;13.00;;;;;-0.50;96.21;98547.31;4669575;28;105917;-71
2023/02/23 00:19:06;;;;;;;;;9.67;9.00;;;;;-0.53;95.62;98543.09;4577205;28;102666;-71
2023/02/23 00:22:16;;;;;;;;;10.33;7.67;;;;;-0.56;94.25;98540.72;4603207;28;102632;-73
2023/02/23 00:25:17;;;;;;;;;9.67;8.00;;;;;-0.59;94.43;98542.81;4707279;28;103591;-68
2023/02/23 00:28:17;;;;;;;;;17.00;12.00;;;;;-0.91;95.45;98522.53;4655056;28;106829;-71
2023/02/23 00:31:52;;;;;;;;;19.00;15.67;;;;;-0.79;96.41;98535.72;4634095;28;102615;-68
2023/02/23 00:35:45;;;;;;;;;16.67;12.67;;;;;-0.86;96.41;98537.22;4617854;28;102455;-69
2023/02/23 00:39:20;;;;;;;;;11.00;8.00;;;;;-0.79;96.07;98548.97;4699156;28;103084;-69
2023/02/23 00:42:51;;;;;;;;;15.00;12.00;;;;;-0.86;95.80;98547.84;4786818;28;106296;-68
2023/02/23 00:46:40;;;;;;;;;12.33;11.00;;;;;-0.86;96.08;98545.19;4734104;28;103378;-68
2023/02/23 00:50:33;;;;;;;;;6.33;5.33;;;;;-0.91;96.07;98546.41;4681324;28;102130;-68
2023/02/23 00:54:01;;;;;;;;;11.67;9.00;;;;;-1.01;96.39;98534.06;4636259;28;102726;-69
2023/02/23 00:57:17;;;;;;;;;11.33;9.33;;;;;-1.29;96.27;98501.06;4648343;28;106105;-70
2023/02/23 01:01:36;;;;;;;;;8.00;5.67;;;;;-1.06;97.09;98534.44;4707826;28;103397;-69
2023/02/23 01:05:12;;;;;;;;;11.33;8.00;;;;;-1.10;96.29;98538.31;4803337;28;101976;-68
2023/02/23 01:08:41;;;;;;;;;11.00;8.67;;;;;-1.18;96.54;98539.94;4707834;28;102282;-68
2023/02/23 01:12:06;;;;;;;;;16.00;13.33;;;;;-1.22;96.53;98539.38;4667391;28;107744;-69
2023/02/23 01:15:51;;;;;;;;;14.00;10.67;;;;;-1.29;97.41;98529.38;4783385;28;102529;-68
2023/02/23 01:27:42;;;;;;;;;14.00;9.33;;;;;-1.38;96.71;98536.31;4659357;28;107593;-69
2023/02/23 01:31:05;;;;;;;;;8.33;7.00;;;;;-1.44;96.77;98510.31;4606045;28;103083;-68
2023/02/23 01:34:59;;;;;;;;;2.00;2.00;;;;;-1.33;96.22;98527.97;4762018;28;102237;-69
2023/02/23 01:39:22;;;;;;;;;2.00;2.00;;;;;-1.36;94.59;98516.66;4714100;28;102402;-68
2023/02/23 01:42:24;;;;;;;;;2.00;1.67;;;;;-1.41;95.27;98529.47;4882782;22;105962;-66
2023/02/23 01:44:51;;;;;;;;;4.00;4.00;;;;;-1.44;95.93;98520.91;4931302;28;102141;-66
2023/02/23 01:47:19;;;;;;;;;2.00;2.00;;;;;-1.43;95.73;98527.88;4930349;28;102459;-66
2023/02/23 01:49:46;;;;;;;;;5.00;4.00;;;;;-1.43;95.11;98517.28;4930090;28;103334;-66
2023/02/23 01:52:16;;;;;;;;;2.00;2.00;;;;;-1.75;96.42;98466.94;4931307;28;104012;-66
2023/02/23 01:54:50;;;;;;;;;8.00;5.67;;;;;-1.49;96.34;98516.00;4930952;28;103545;-67
2023/02/23 01:57:23;;;;;;;;;5.00;4.00;;;;;-1.53;97.08;98509.25;4929724;28;102048;-67
2023/02/23 01:59:51;;;;;;;;;9.33;9.00;;;;;-1.57;96.89;98507.81;4932226;28;101952;-67
2023/02/23 02:02:22;;;;;;;;;12.00;10.67;;;;;-1.63;97.21;98497.75;4923167;28;103977;-67
2023/02/23 02:04:50;;;;;;;;;17.33;15.00;;;;;-1.70;96.33;98501.00;4926861;28;103771;-66
2023/02/23 02:07:23;;;;;;;;;18.33;14.33;;;;;-1.74;98.15;98494.28;4921556;28;102351;-67
2023/02/23 02:12:59;;;;;;;;;24.00;20.67;;;;;-2.16;98.13;98435.09;4921473;28;107463;-67
2023/02/23 02:15:52;;;;;;;;;18.67;15.67;;;;;-1.88;98.85;98479.53;4926247;28;102209;-66
2023/02/23 02:18:48;;;;;;;;;11.00;5.00;;;;;-1.80;97.58;98485.03;4923681;28;102646;-67
2023/02/23 02:21:54;;;;;;;;;9.33;7.33;;;;;-1.74;97.30;98478.38;4923992;28;102111;-68
2023/02/23 02:24:51;;;;;;;;;7.67;5.00;;;;;-1.68;96.98;98480.53;4922187;28;108027;-68
2023/02/23 02:28:02;;;;;;;;;3.33;2.00;;;;;-1.66;97.82;98468.81;4923040;28;102279;-67
2023/02/23 02:31:00;;;;;;;;;2.00;2.00;;;;;-1.67;96.38;98469.81;4906820;28;102209;-67
2023/02/23 02:34:07;;;;;;;;;4.00;4.00;;;;;-1.71;95.38;98462.25;4907766;28;102437;-67
2023/02/23 02:37:11;;;;;;;;;6.33;4.00;;;;;-1.75;96.41;98477.53;4906152;28;108568;-67
2023/02/23 02:39:53;;;;;;;;;7.00;2.00;;;;;-1.76;96.02;98475.03;4910256;28;104229;-67
2023/02/23 02:42:39;;;;;;;;;2.00;2.00;;;;;-1.77;95.90;98476.00;4914289;28;102305;-67
2023/02/23 02:45:39;;;;;;;;;5.67;5.67;;;;;-1.80;96.87;98469.97;4933811;28;103010;-67
2023/02/23 02:48:29;;;;;;;;;5.33;5.33;;;;;-1.76;96.86;98480.34;4930194;28;108639;-66
2023/02/23 02:51:03;;;;;;;;;11.00;8.00;;;;;-1.79;96.26;98481.41;4931467;28;102834;-66
2023/02/23 02:53:40;;;;;;;;;11.67;10.67;;;;;-1.82;95.67;98471.94;4930771;28;102155;-67
2023/02/23 02:56:08;;;;;;;;;8.67;7.67;;;;;-1.76;96.85;98475.03;4933464;28;102438;-67
2023/02/23 02:58:37;;;;;;;;;8.00;6.33;;;;;-1.74;97.01;98475.75;4932769;28;104522;-67
2023/02/23 04:17:42;;;;;;;;;10.00;7.67;;;;;-1.98;97.88;98460.88;4913657;28;101980;-66
2023/02/23 04:20:12;;;;;;;;;9.33;7.33;;;;;-1.97;98.18;98462.59;4913992;28;104027;-67
2023/02/23 04:22:39;;;;;;;;;5.00;5.00;;;;;-1.95;99.16;98463.31;4925148;28;102245;-66
2023/02/23 04:25:07;;;;;;;;;4.00;2.00;;;;;-1.95;97.49;98468.59;4915105;28;102194;-66
2023/02/23 04:27:35;;;;;;;;;7.00;5.67;;;;;-2.02;98.51;98459.47;4914005;28;102301;-67
2023/02/23 04:30:03;;;;;;;;;16.67;12.67;;;;;-2.07;98.45;98463.47;4912567;28;104004;-67
2023/02/23 04:32:30;;;;;;;;;25.67;20.00;;;;;-2.14;98.76;98462.28;4910110;28;102183;-67
2023/02/23 04:34:57;;;;;;;;;7.67;5.67;;;;;-2.12;98.68;98463.00;4911596;28;102340;-68
2023/02/23 04:37:24;;;;;;;;;32.67;25.00;;;;;-2.21;99.80;98458.47;4914717;28;102466;-68
2023/02/23 04:39:51;;;;;;;;;32.00;26.00;;;;;-2.28;99.37;98460.75;4910075;28;104158;-68
2023/02/23 04:42:18;;;;;;;;;34.67;27.33;;;;;-2.41;99.62;98463.56;4914399;28;102497;-68
2023/02/23 04:44:45;;;;;;;;;29.33;25.67;;;;;-2.41;100.00;98458.28;4931247;28;101990;-68
2023/02/23 04:47:16;;;;;;;;;19.67;17.33;;;;;-2.32;100.00;98456.69;4931968;28;102408;-67
2023/02/23 04:49:43;;;;;;;;;19.67;14.00;;;;;-2.56;100.00;98416.28;4929988;28;104211;-68
2023/02/23 04:52:10;;;;;;;;;13.67;10.67;;;;;-2.27;99.89;98449.22;4930969;28;102377;-68
2023/02/23 04:54:38;;;;;;;;;17.00;13.00;;;;;-2.32;100.00;98464.63;4936567;28;102312;-69
2023/02/23 04:57:06;;;;;;;;;24.67;23.00;;;;;-2.39;99.71;98460.81;4932935;28;102241;-68
2023/02/23 04:59:33;;;;;;;;;31.00;20.67;;;;;-2.43;99.00;98459.38;4930115;28;108792;-68
2023/02/23 05:02:00;;;;;;;;;37.67;33.00;;;;;-2.48;100.00;98451.78;4938985;28;102243;-69
2023/02/23 05:04:27;;;;;;;;;24.33;22.33;;;;;-2.50;100.00;98450.22;4932389;28;103156;-67
2023/02/23 05:06:54;;;;;;;;;20.67;15.33;;;;;-2.64;100.00;98431.97;4933160;28;101931;-68
2023/02/23 05:09:21;;;;;;;;;17.67;16.00;;;;;-2.46;100.00;98452.50;4932285;28;103948;-69
2023/02/23 05:11:49;;;;;;;;;30.00;25.33;;;;;-2.51;99.61;98456.47;4936528;28;102425;-68
2023/02/23 05:14:16;;;;;;;;;37.00;31.33;;;;;-2.55;99.24;98450.59;4936463;28;102325;-68
2023/02/23 05:16:43;;;;;;;;;31.33;24.67;;;;;-2.50;99.55;98455.50;4935150;28;102592;-69
2023/02/23 05:19:10;;;;;;;;;20.67;16.00;;;;;-2.43;100.00;98454.06;4932827;28;104023;-68
2023/02/23 05:21:37;;;;;;;;;15.33;13.67;;;;;-2.42;100.00;98455.72;4932405;28;104418;-68
2023/02/23 05:24:05;;;;;;;;;13.67;5.67;;;;;-2.37;99.53;98445.63;4937325;28;102071;-68
2023/02/23 05:26:32;;;;;;;;;5.00;4.00;;;;;-2.44;99.39;98440.00;4930095;28;102363;-68
2023/02/23 05:28:59;;;;;;;;;5.00;5.00;;;;;-2.36;99.46;98449.94;4928325;28;103966;-68
2023/02/23 05:31:27;;;;;;;;;10.00;5.00;;;;;-2.34;98.82;98459.44;4923602;28;102506;-67
2023/02/23 05:33:54;;;;;;;;;5.00;5.00;;;;;-2.36;100.00;98457.91;4929566;28;102328;-67
2023/02/23 05:36:21;;;;;;;;;18.00;16.33;;;;;-2.37;100.00;98456.22;4933690;28;102029;-67
2023/02/23 05:38:48;;;;;;;;;19.00;15.00;;;;;-2.39;100.00;98455.50;4930720;28;103682;-67
2023/02/23 05:41:18;;;;;;;;;19.00;16.33;;;;;-2.39;100.00;98461.66;4929369;28;102191;-67
2023/02/23 05:43:49;;;;;;;;;17.00;13.00;;;;;-2.32;100.00;98457.53;4927681;28;101996;-67
2023/02/23 05:46:21;;;;;;;;;24.33;17.33;;;;;-2.26;100.00;98461.50;4930664;28;102208;-67
2023/02/23 05:48:48;;;;;;;;;20.33;16.67;;;;;-2.23;100.00;98458.59;4928888;28;104088;-67
2023/02/23 05:51:15;;;;;;;;;13.67;12.33;;;;;-2.16;100.00;98466.88;4927329;28;102265;-68
2023/02/23 05:53:45;;;;;;;;;19.67;16.67;;;;;-2.15;100.00;98453.50;4924913;28;102449;-68
2023/02/23 05:56:19;;;;;;;;;15.33;10.67;;;;;-2.09;100.00;98458.31;4927387;28;104165;-67
2023/02/23 05:58:51;;;;;;;;;16.67;8.00;;;;;-2.04;100.00;98461.41;4930061;28;103944;-67
2023/02/23 06:01:20;;;;;;;;;20.33;17.00;;;;;-2.13;99.72;98440.13;4929137;28;108183;-68
2023/02/23 06:03:48;;;;;;;;;14.67;12.00;;;;;-2.24;100.00;98417.16;4924418;28;102190;-68
2023/02/23 06:06:16;;;;;;;;;17.33;10.00;;;;;-1.88;100.00;98467.13;4922131;28;103310;-69
2023/02/23 06:08:44;;;;;;;;;14.33;12.00;;;;;-1.84;98.84;98457.09;4927514;28;104861;-68
2023/02/23 06:11:11;;;;;;;;;8.67;7.00;;;;;-1.79;99.21;98457.56;4924778;28;102725;-68
2023/02/23 06:13:38;;;;;;;;;9.67;7.33;;;;;-1.73;98.53;98459.72;4931661;28;102326;-69
2023/02/23 06:16:05;;;;;;;;;7.33;6.33;;;;;-1.66;98.30;98460.88;4929333;28;102151;-69
2023/02/23 06:18:33;;;;;;;;;8.67;4.67;;;;;-1.60;98.48;98464.84;4929213;28;104227;-69
2023/02/23 06:21:01;;;;;;;;;11.67;9.00;;;;;-1.59;98.58;98467.38;4923923;28;102867;-68
2023/02/23 06:23:28;;;;;;;;;10.00;7.67;;;;;-1.51;98.54;98469.38;4927355;28;102928;-69
2023/02/23 06:25:56;;;;;;;;;11.00;8.67;;;;;-1.44;96.62;98479.31;4926556;28;102386;-68
2023/02/23 06:28:24;;;;;;;;;7.67;7.00;;;;;-1.41;96.38;98471.13;4930758;28;103994;-69
2023/02/23 06:30:53;;;;;;;;;7.00;7.00;;;;;-1.38;95.67;98470.00;4930441;28;102474;-69
2023/02/23 06:33:21;;;;;;;;;9.33;9.33;;;;;-1.29;97.17;98471.88;4930451;28;102199;-69
2023/02/23 06:35:48;;;;;;;;;10.67;8.00;;;;;-1.24;96.12;98469.69;4928979;28;102440;-68
2023/02/23 06:38:15;;;;;;;;;13.33;11.33;;;;;-1.26;96.22;98461.00;4926870;28;103157;-68
2023/02/23 06:40:42;;;;;;;;;22.33;16.67;;;;;-1.14;96.65;98470.59;4928812;28;102317;-69
2023/02/23 06:43:09;;;;;;;;;15.00;12.00;;;;;-1.02;96.14;98472.19;4931303;28;102274;-68
2023/02/23 06:45:37;;;;;;;;;14.00;11.00;;;;;-0.94;96.52;98475.00;4934618;28;102335;-69
2023/02/23 06:48:04;;;;;;;;;9.00;8.33;;;;;-0.84;95.95;98477.72;4932490;28;104157;-69
2023/02/23 06:50:32;;;;;;;;;11.00;11.00;;;;;-0.74;95.80;98472.44;4921617;28;102570;-69
2023/02/23 06:52:59;;;;;;;;;12.00;11.00;;;;;-0.63;96.01;98480.34;4929809;28;102087;-69
2023/02/23 06:55:26;;;;;;;;;12.67;12.00;;;;;-0.50;95.03;98475.63;4935732;28;102509;-69
2023/02/23 06:57:53;;;;;;;;;15.00;12.00;;;;;-0.47;93.56;98478.84;4934505;28;103986;-68
2023/02/23 07:00:20;;;;;;;;;32.00;29.33;;;;;-0.45;92.51;98481.34;4929324;28;102756;-69
2023/02/23 07:02:47;;;;;;;;;36.00;26.67;;;;;-0.41;91.54;98479.28;4931188;28;102591;-69
2023/02/23 07:05:15;;;;;;;;;47.67;37.33;;;;;-0.46;91.72;98463.75;4929890;28;102462;-69
2023/02/23 07:07:42;;;;;;;;;40.00;36.00;;;;;-0.30;91.94;98477.34;4929722;28;104087;-69
2023/02/23 07:10:10;;;;;;;;;40.67;37.00;;;;;-0.23;91.74;98481.16;4931949;28;102150;-68
2023/02/23 07:12:37;;;;;;;;;36.00;35.33;;;;;-0.13;91.28;98484.66;4934707;28;101984;-68
2023/02/23 07:15:05;;;;;;;;;50.00;42.33;;;;;-0.21;90.58;98459.75;4931931;28;101993;-68
2023/02/23 07:17:32;;;;;;;;;36.33;27.67;;;;;0.06;90.84;98481.19;4934558;28;104162;-68
2023/02/23 07:19:59;;;;;;;;;51.00;41.33;;;;;0.02;90.25;98468.31;4936937;28;102113;-68
2023/02/23 07:22:29;;;;;;;;;42.33;31.33;;;;;0.24;90.83;98487.50;4938209;28;102394;-68
2023/02/23 07:24:56;;;;;;;;;33.67;30.33;;;;;0.38;89.45;98488.91;4927517;28;102529;-68
2023/02/23 07:27:24;;;;;;;;;26.00;20.67;;;;;0.36;88.57;98482.91;4932132;28;104023;-69
2023/02/23 07:29:51;;;;;;;;;48.00;38.00;;;;;0.42;88.66;98485.81;4927871;28;104928;-69
2023/02/23 07:32:18;;;;;;;;;34.67;30.00;;;;;0.58;88.87;98485.28;4941333;28;102081;-69
2023/02/23 07:34:46;;;;;;;;;43.67;38.67;;;;;0.57;88.89;98475.59;4927786;28;102394;-69
2023/02/23 07:37:14;;;;;;;;;48.67;39.00;;;;;0.62;89.78;98473.38;4936177;28;104148;-69
2023/02/23 07:39:41;;;;;;;;;52.67;37.67;;;;;0.67;88.26;98476.44;4933454;28;104987;-71
2023/02/23 07:42:08;;;;;;;;;46.33;40.33;;;;;0.77;89.73;98471.91;4932730;28;102199;-69
2023/02/23 07:44:36;;;;;;;;;41.67;34.67;;;;;0.79;88.93;98472.63;4930029;28;102324;-67
2023/02/23 07:47:04;;;;;;;;;48.33;39.33;;;;;0.90;88.36;98469.78;4933247;28;104060;-68
2023/02/23 07:49:33;;;;;;;;;45.00;34.67;;;;;0.98;88.74;98478.91;4940177;28;102397;-68
2023/02/23 07:52:00;;;;;;;;;53.00;39.33;;;;;1.05;87.80;98475.50;4935250;28;102330;-68
2023/02/23 07:54:27;;;;;;;;;52.67;42.33;;;;;1.10;87.94;98472.41;4934276;28;102391;-68
2023/02/23 07:56:54;;;;;;;;;53.33;41.00;;;;;1.22;87.65;98473.91;4940765;28;104039;-68
2023/02/23 07:59:20;;;;;;;;;59.33;44.33;;;;;1.23;87.73;98470.25;4934867;28;102598;-69
2023/02/23 08:01:47;;;;;;;;;55.33;42.33;;;;;1.20;87.38;98465.22;4934182;28;102380;-69
2023/02/23 08:04:14;;;;;;;;;50.33;41.33;;;;;1.34;87.11;98476.25;4929317;28;102318;-69
2023/02/23 08:06:41;;;;;;;;;52.67;41.00;;;;;1.51;87.18;98471.13;4931448;28;103949;-69
2023/02/23 08:09:10;;;;;;;;;39.00;33.33;;;;;1.65;86.80;98459.97;4936272;28;103127;-69
2023/02/23 08:11:38;;;;;;;;;58.67;40.67;;;;;1.90;85.79;98469.09;4940886;28;101998;-69
2023/02/23 08:14:05;;;;;;;;;34.00;28.00;;;;;2.08;85.70;98456.63;4926769;28;102435;-69
2023/02/23 08:16:32;;;;;;;;;40.67;36.67;;;;;2.06;85.23;98461.28;4930130;28;104175;-68
2023/02/23 08:19:00;;;;;;;;;45.67;38.33;;;;;2.02;84.48;98463.41;4939172;28;102235;-68
2023/02/23 08:21:28;;;;;;;;;45.33;35.00;;;;;2.07;84.73;98458.44;4932850;28;102209;-68
2023/02/23 08:23:56;;;;;;;;;45.67;40.00;;;;;2.19;84.41;98461.75;4933608;28;102360;-68
2023/02/23 08:26:24;;;;;;;;;35.67;30.67;;;;;2.45;84.00;98462.66;4942592;28;103922;-68
2023/02/23 08:28:52;;;;;;;;;39.00;34.33;;;;;2.58;84.28;98456.91;4929616;28;102510;-67
2023/02/23 08:31:22;;;;;;;;;56.00;42.00;;;;;2.54;82.95;98458.22;4932549;28;101987;-67
2023/02/23 08:33:51;;;;;;;;;52.00;42.33;;;;;2.44;83.48;98450.28;4933764;28;103370;-67
2023/02/23 08:36:19;;;;;;;;;54.00;39.00;;;;;2.66;83.98;98459.63;4936604;28;104021;-69
2023/02/23 08:38:47;;;;;;;;;39.33;32.67;;;;;2.80;83.84;98455.56;4933942;28;102387;-69
2023/02/23 08:41:14;;;;;;;;;49.00;37.33;;;;;3.01;82.90;98454.25;4944036;28;102053;-69
2023/02/23 08:43:41;;;;;;;;;32.00;28.00;;;;;3.40;81.66;98457.31;4931864;28;102307;-68
2023/02/23 08:46:11;;;;;;;;;32.00;28.00;;;;;3.60;80.48;98457.91;4929454;28;108706;-67
2023/02/23 08:48:39;;;;;;;;;44.67;32.00;;;;;3.52;78.93;98450.66;4928813;28;102443;-67
2023/02/23 08:51:07;;;;;;;;;33.00;27.25;;;;;3.78;78.99;98447.91;4929064;28;101964;-68
2023/02/23 08:53:35;;;;;;;;;29.00;26.75;;;;;3.92;78.85;98449.97;4930619;28;102076;-67
2023/02/23 08:56:05;;;;;;;;;40.00;30.25;;;;;3.99;77.42;98443.00;4929772;28;104153;-68
2023/02/23 08:58:33;;;;;;;;;41.00;32.33;;;;;3.88;77.26;98442.44;4929926;28;102081;-68
2023/02/23 09:01:01;;;;;;;;;41.00;36.33;;;;;3.79;76.45;98446.09;4932486;28;101994;-68
2023/02/23 09:03:29;;;;;;;;;43.00;37.67;;;;;3.81;77.94;98449.44;4930396;28;101967;-69
2023/02/23 09:06:07;;;;;;;;;46.00;37.00;;;;;4.13;76.60;98444.19;4928906;28;104127;-68
2023/02/23 09:08:34;;;;;;;;;36.25;29.25;;;;;4.25;76.37;98445.53;4932040;28;102108;-68
2023/02/23 09:11:01;;;;;;;;;32.00;26.25;;;;;4.57;75.48;98443.91;4930720;28;102420;-68
2023/02/23 09:13:28;;;;;;;;;10.75;5.00;;;;;4.82;75.50;98443.72;4931082;28;102353;-68
2023/02/23 09:15:55;;;;;;;;;25.50;18.75;;;;;5.05;73.03;98448.38;4931000;28;103795;-68
2023/02/23 09:18:28;;;;;;;;;20.00;17.50;;;;;5.24;73.14;98446.16;4931290;28;101839;-68
2023/02/23 09:20:55;;;;;;;;;16.75;15.50;;;;;5.34;72.97;98444.16;4932532;28;102011;-68
2023/02/23 09:23:27;;;;;;;;;19.00;13.25;;;;;5.40;71.51;98443.44;4930688;28;102306;-68
2023/02/23 09:25:53;;;;;;;;;22.25;17.75;;;;;5.47;70.31;98438.22;4927856;28;104209;-68
2023/02/23 09:28:21;;;;;;;;;27.50;25.25;;;;;5.40;70.19;98431.91;4931345;28;102264;-69
2023/02/23 09:30:48;;;;;;;;;18.00;15.25;;;;;5.56;71.00;98425.63;4932809;28;102272;-68
2023/02/23 09:33:16;;;;;;;;;30.00;25.25;;;;;5.29;70.72;98421.53;4932831;28;102507;-68
2023/02/23 09:35:42;;;;;;;;;32.75;27.50;;;;;5.49;71.15;98419.31;4932893;28;104001;-68
2023/02/23 09:38:09;;;;;;;;;27.25;17.00;;;;;5.58;70.31;98426.31;4931673;28;102761;-68
2023/02/23 09:40:48;;;;;;;;;21.00;18.00;;;;;5.78;70.57;98414.13;4931807;28;101829;-68
2023/02/23 09:43:18;;;;;;;;;18.00;16.25;;;;;5.84;69.63;98424.16;4936838;28;102500;-68
2023/02/23 09:45:51;;;;;;;;;24.50;21.50;;;;;5.93;69.70;98433.03;4932420;28;104100;-69
2023/02/23 09:48:22;;;;;;;;;21.50;19.75;;;;;6.07;68.80;98435.81;4934816;28;102434;-68
2023/02/23 09:50:52;;;;;;;;;17.00;13.25;;;;;6.24;67.95;98442.75;4935939;28;103878;-68
2023/02/23 09:53:29;;;;;;;;;13.25;11.75;;;;;6.43;68.61;98429.88;4931298;28;103271;-68
2023/02/23 09:56:03;;;;;;;;;12.50;10.00;;;;;6.60;67.42;98434.09;4927837;28;104558;-68
2023/02/23 09:58:32;;;;;;;;;14.75;9.50;;;;;6.71;66.37;98423.75;4939909;28;102585;-68
2023/02/23 10:01:24;;;;;;;;;9.00;7.75;;;;;6.87;67.23;98430.00;4937076;28;102117;-69
2023/02/23 10:03:56;;;;;;;;;12.25;9.50;;;;;7.01;66.28;98431.91;4936531;28;102453;-69
2023/02/23 10:06:23;;;;;;;;;12.75;12.75;;;;;7.06;65.35;98427.66;4928790;28;104334;-69
2023/02/23 10:09:14;;;;;;;;;24.50;20.50;;;;;6.99;65.60;98432.06;4941872;28;102263;-68
2023/02/23 10:11:55;;;;;;;;;22.75;19.25;;;;;7.00;64.19;98425.69;4925271;28;103168;-68
2023/02/23 10:14:29;;;;;;;;;24.50;23.00;;;;;6.71;66.12;98420.22;4931427;28;102334;-68
2023/02/23 10:17:08;;;;;;;;;14.25;12.75;;;;;7.00;65.92;98422.16;4938909;28;104171;-69
2023/02/23 10:20:00;;;;;;;;;19.00;14.00;;;;;7.20;65.54;98417.94;4944725;28;102003;-68
2023/02/23 10:22:28;;;;;;;;;29.50;23.50;;;;;7.30;64.88;98415.78;4926467;28;101995;-69
2023/02/23 10:25:03;;;;;;;;;13.00;12.00;;;;;7.44;63.61;98414.13;4937443;28;102082;-69
2023/02/23 10:27:50;;;;;;;;;12.75;11.00;;;;;7.53;63.42;98416.53;4938543;28;104077;-68
2023/02/23 10:30:26;;;;;;;;;14.25;12.25;;;;;7.63;62.78;98424.31;4926761;28;102045;-68
2023/02/23 10:33:30;;;;;;;;;11.50;9.75;;;;;7.81;62.75;98416.69;4930381;28;101987;-69
2023/02/23 10:36:11;;;;;;;;;15.50;14.00;;;;;7.81;61.68;98411.31;4925312;28;102316;-68
2023/02/23 10:38:39;;;;;;;;;18.50;14.50;;;;;7.67;62.65;98408.63;4930316;28;110160;-68
2023/02/23 10:41:09;;;;;;;;;10.75;10.50;;;;;7.76;61.97;98413.72;4935481;28;102349;-68
2023/02/23 10:43:40;;;;;;;;;10.75;8.25;;;;;7.82;61.83;98407.59;4927366;28;102288;-68
2023/02/23 10:46:17;;;;;;;;;9.00;7.00;;;;;7.83;61.39;98397.69;4929849;28;102408;-68
2023/02/23 10:48:46;;;;;;;;;8.00;8.00;;;;;8.00;60.29;98399.97;4928299;28;108892;-68
2023/02/23 10:51:25;;;;;;;;;12.25;8.00;;;;;8.19;59.98;98403.91;4930992;28;102347;-68
2023/02/23 10:53:52;;;;;;;;;8.50;7.00;;;;;8.29;60.91;98398.19;4925392;28;101972;-69
2023/02/23 10:56:21;;;;;;;;;6.75;6.25;;;;;8.46;60.45;98402.34;4925671;28;102312;-69
2023/02/23 10:58:55;;;;;;;;;8.25;7.00;;;;;8.64;59.32;98389.25;4931013;28;104066;-67
2023/02/23 11:01:45;;;;;;;;;8.75;7.75;;;;;8.70;60.30;98387.63;4930715;28;102612;-69
2023/02/23 11:04:29;;;;;;;;;7.50;7.00;;;;;8.71;59.85;98384.75;4932385;28;102196;-68
2023/02/23 11:07:14;;;;;;;;;9.00;7.25;;;;;8.84;59.58;98384.84;4934144;28;102368;-69
2023/02/23 11:09:42;;;;;;;;;8.25;6.75;;;;;8.93;59.47;98380.13;4934933;28;108718;-68
2023/02/23 11:12:21;;;;;;;;;8.25;8.00;;;;;8.82;59.11;98378.00;4935837;28;102152;-67
2023/02/23 11:14:50;;;;;;;;;13.00;9.00;;;;;8.80;59.29;98372.78;4927962;28;102075;-68
2023/02/23 11:17:28;;;;;;;;;12.75;9.25;;;;;8.90;60.37;98370.59;4932788;28;102046;-68
2023/02/23 11:20:17;;;;;;;;;16.25;12.50;;;;;8.97;59.32;98365.22;4930330;28;103617;-68
2023/02/23 11:22:45;;;;;;;;;12.75;11.00;;;;;9.03;58.54;98374.41;4934931;28;101949;-67
2023/02/23 11:25:37;;;;;;;;;21.50;19.75;;;;;8.85;57.78;98366.81;4930914;28;103032;-68
2023/02/23 11:28:04;;;;;;;;;15.00;14.00;;;;;8.89;60.06;98360.84;4929504;28;101964;-69
2023/02/23 11:30:36;;;;;;;;;14.00;12.00;;;;;8.90;58.97;98351.72;4933282;28;104219;-67
2023/02/23 11:33:09;;;;;;;;;10.25;10.25;;;;;8.95;59.33;98356.53;4931971;28;102452;-67
2023/02/23 11:35:37;;;;;;;;;10.75;9.50;;;;;9.06;59.48;98347.88;4931588;28;102513;-68
2023/02/23 11:38:23;;;;;;;;;9.00;9.00;;;;;9.12;58.79;98354.34;4930125;28;102010;-68
2023/02/23 11:41:04;;;;;;;;;14.00;12.00;;;;;9.17;59.43;98351.88;4933498;28;108563;-69
2023/02/23 11:43:31;;;;;;;;;12.00;8.50;;;;;9.27;59.15;98350.50;4927838;28;103486;-68
2023/02/23 11:46:01;;;;;;;;;8.75;8.25;;;;;9.27;58.27;98338.88;4932301;28;101898;-68
2023/02/23 11:48:36;;;;;;;;;7.00;6.75;;;;;9.27;58.77;98341.59;4930392;28;102260;-68
2023/02/23 11:51:04;;;;;;;;;9.75;6.75;;;;;9.39;58.49;98342.69;4930136;28;104077;-68
2023/02/23 11:53:35;;;;;;;;;8.00;7.50;;;;;9.33;58.50;98338.91;4931300;28;102961;-68
2023/02/23 11:56:09;;;;;;;;;9.25;9.00;;;;;9.18;59.12;98302.31;4933041;28;102528;-68
2023/02/23 11:58:48;;;;;;;;;12.25;10.00;;;;;9.36;58.42;98340.38;4931831;28;102108;-68
2023/02/23 12:01:22;;;;;;;;;9.00;8.00;;;;;9.35;58.98;98333.31;4932958;28;108436;-70
2023/02/23 12:03:55;;;;;;;;;11.50;9.25;;;;;9.29;56.48;98329.53;4932188;28;102136;-68
2023/02/23 12:06:32;;;;;;;;;18.00;16.25;;;;;9.09;59.21;98335.88;4931874;28;102311;-68
2023/02/23 12:09:25;;;;;;;;;21.75;18.50;;;;;9.15;60.90;98326.97;4932516;28;102006;-68
2023/02/23 12:11:58;;;;;;;;;16.50;14.75;;;;;9.40;59.54;98325.47;4929412;28;108172;-68
2023/02/23 12:14:52;;;;;;;;;9.75;9.00;;;;;9.62;58.19;98320.78;4932619;28;102488;-67
2023/02/23 12:17:25;;;;;;;;;17.00;14.25;;;;;9.54;58.56;98320.97;4916208;28;102184;-68
2023/02/23 12:20:09;;;;;;;;;21.00;18.25;;;;;9.42;59.54;98315.28;4934395;28;102265;-69
2023/02/23 12:22:50;;;;;;;;;13.75;12.00;;;;;9.57;58.36;98318.69;4931867;28;104220;-68
2023/02/23 12:25:27;;;;;;;;;13.25;11.50;;;;;9.61;58.77;98314.53;4930218;28;102012;-68
2023/02/23 12:28:05;;;;;;;;;9.75;8.25;;;;;9.71;59.22;98308.78;4933459;28;102453;-68
2023/02/23 12:30:53;;;;;;;;;7.00;5.00;;;;;9.85;57.73;98300.50;4933643;28;101947;-68
2023/02/23 12:33:28;;;;;;;;;18.50;15.50;;;;;9.94;58.60;98297.63;4927987;28;108453;-68
2023/02/23 12:36:02;;;;;;;;;10.25;8.75;;;;;9.97;57.43;98302.59;4930163;28;103001;-69
2023/02/23 12:38:47;;;;;;;;;7.75;7.75;;;;;9.83;57.29;98243.16;4928392;28;102509;-68
2023/02/23 12:41:29;;;;;;;;;4.75;4.75;;;;;10.29;57.64;98293.75;4929992;28;102038;-68
2023/02/23 12:44:02;;;;;;;;;5.75;5.25;;;;;10.25;58.74;98287.09;4938469;28;108686;-68
2023/02/23 12:46:46;;;;;;;;;15.50;12.25;;;;;10.03;58.37;98285.59;4930955;28;102046;-68
2023/02/23 12:49:32;;;;;;;;;13.25;10.00;;;;;10.11;57.53;98272.72;4934681;28;102687;-68
2023/02/23 12:52:10;;;;;;;;;15.25;10.25;;;;;10.14;58.36;98274.16;4926936;28;102322;-67
2023/02/23 12:54:37;;;;;;;;;12.00;9.25;;;;;10.13;58.27;98280.63;4929221;28;103994;-68
2023/02/23 12:57:17;;;;;;;;;10.50;9.50;;;;;10.24;58.20;98280.03;4927807;28;102929;-67
2023/02/23 12:59:56;;;;;;;;;9.75;8.50;;;;;10.15;57.84;98257.78;4933970;28;102130;-68
2023/02/23 13:02:39;;;;;;;;;8.00;6.75;;;;;10.22;58.53;98260.50;4942327;28;102179;-68
2023/02/23 13:05:33;;;;;;;;;8.00;7.00;;;;;10.23;59.01;98262.13;4931877;28;104021;-67
2023/02/23 13:08:20;;;;;;;;;10.25;6.50;;;;;10.28;59.14;98256.94;4940852;28;102665;-67
2023/02/23 13:11:10;;;;;;;;;7.00;4.00;;;;;10.22;58.43;98252.41;4933645;28;102146;-68
2023/02/23 13:13:42;;;;;;;;;4.25;4.00;;;;;10.20;58.87;98251.75;4943929;28;102390;-67
2023/02/23 13:16:29;;;;;;;;;7.00;5.00;;;;;10.25;59.33;98252.81;4931026;28;103974;-68
2023/02/23 13:19:15;;;;;;;;;17.25;11.25;;;;;10.16;58.63;98242.41;4934283;28;102309;-67
2023/02/23 13:21:53;;;;;;;;;12.50;11.50;;;;;10.12;60.38;98241.97;4935013;28;102218;-69
2023/02/23 13:24:28;;;;;;;;;14.50;10.00;;;;;9.98;59.73;98231.34;4926172;28;102379;-68
2023/02/23 13:27:00;;;;;;;;;17.25;13.00;;;;;9.86;59.94;98237.34;4938613;28;104000;-68
2023/02/23 13:29:38;;;;;;;;;10.75;10.00;;;;;9.99;59.37;98235.72;4935705;28;102494;-68
2023/02/23 13:32:16;;;;;;;;;9.75;9.75;;;;;10.05;59.62;98240.28;4938818;28;102419;-67
2023/02/23 13:34:59;;;;;;;;;7.25;7.00;;;;;10.11;60.79;98239.47;4934695;28;102070;-67
2023/02/23 13:37:38;;;;;;;;;11.50;10.75;;;;;10.05;60.54;98229.47;4924116;28;108441;-68